3S8

Grants Pass Airport

Grants Pass, Oregon, USA
METAR K3S8 172315Z AUTO 00000KT 10SM CLR 16/04 A3004 RMK AO2
Observed Flight Rules
Nov-17 @ 23:15 UTC (22 minutes ago) Visual Flight Rules
Visibility Clouds
10 miles
  • Clear skies
Temperatures Readings
Current 16°C / 61°F
Dewpoint 4°C / 39°F
Humidity 45%
Altimeter 30.04" Hg
Pressure 1017 hPa
Elevation 343
METAR K3S8 172315Z AUTO 00000KT 10SM CLR 16/04 A3004 RMK AO2
Observed Flight Rules
Nov-17 @ 23:15 UTC
(22 minutes ago)
VFR
Clouds
  • Clear skies
Temperature Dewpoint
16°C / 61°F 4°C / 39°F
Humidity Altimeter Pressure
45% 30.04" Hg 1017 hPa